createdAt,value
2022-11-17T00:01:10.017Z,3.45
2022-11-17T00:06:12.116Z,4.38
2022-11-17T00:11:14.189Z,5.85
2022-11-17T00:16:17.293Z,2.63
2022-11-17T00:21:19.219Z,2.97
2022-11-17T00:26:33.066Z,2.85
2022-11-17T00:31:53.232Z,5.00
2022-11-17T00:36:55.490Z,4.43
2022-11-17T00:41:57.447Z,4.90
2022-11-17T00:46:59.301Z,3.83
2022-11-17T00:52:01.061Z,4.65
2022-11-17T00:57:02.962Z,4.63
2022-11-17T01:02:04.768Z,6.25
2022-11-17T01:07:06.615Z,3.60
2022-11-17T01:12:08.479Z,4.85
2022-11-17T01:17:10.254Z,4.05
2022-11-17T01:22:13.265Z,2.97
2022-11-17T01:27:15.285Z,3.72
2022-11-17T01:32:17.098Z,4.40
2022-11-17T01:37:21.678Z,3.15
2022-11-17T01:42:26.959Z,4.00
2022-11-17T01:47:58.039Z,2.70
2022-11-17T01:53:02.994Z,7.30
2022-11-17T01:58:34.377Z,2.95
2022-11-17T02:03:37.167Z,3.65
2022-11-17T02:08:43.495Z,2.83
2022-11-17T02:13:46.355Z,2.97
2022-11-17T02:18:49.186Z,4.47
2022-11-17T02:23:53.921Z,5.88
2022-11-17T02:29:19.044Z,4.30
2022-11-17T02:34:45.899Z,3.50
2022-11-17T02:39:56.150Z,3.80
2022-11-17T02:45:03.231Z,4.03
2022-11-17T02:50:08.266Z,1.90
2022-11-17T02:55:12.051Z,2.65
2022-11-17T03:00:17.555Z,4.00
2022-11-17T03:05:37.721Z,3.78
2022-11-17T03:10:52.520Z,3.00
2022-11-17T03:16:08.985Z,2.42
2022-11-17T03:21:13.316Z,2.10
2022-11-17T03:26:22.785Z,1.65
2022-11-17T03:31:27.981Z,3.13
2022-11-17T03:36:36.877Z,1.83
2022-11-17T03:41:43.975Z,2.72
2022-11-17T03:46:49.426Z,2.13
2022-11-17T03:51:51.630Z,3.95
2022-11-17T03:57:18.355Z,2.65
2022-11-17T04:02:21.747Z,1.85
2022-11-17T04:07:23.813Z,2.03
2022-11-17T04:12:44.093Z,5.55
2022-11-17T04:17:46.074Z,1.50
2022-11-17T04:23:07.330Z,3.45
2022-11-17T04:28:27.674Z,2.42
2022-11-17T04:33:29.653Z,3.45
2022-11-17T04:38:31.528Z,2.65
2022-11-17T04:43:34.239Z,4.90
2022-11-17T04:48:36.478Z,4.65
2022-11-17T04:53:38.751Z,3.72
2022-11-17T04:58:41.957Z,4.10
2022-11-17T05:03:52.940Z,3.67
2022-11-17T05:08:56.671Z,13.38
2022-11-17T05:13:58.946Z,2.92
2022-11-17T05:19:01.600Z,3.38
2022-11-17T05:24:03.991Z,3.78
2022-11-17T05:29:08.199Z,3.50
2022-11-17T05:34:12.663Z,4.10
2022-11-17T05:39:14.530Z,2.75
2022-11-17T05:44:16.718Z,3.92
2022-11-17T05:49:18.601Z,3.90
2022-11-17T05:54:20.682Z,3.72
2022-11-17T05:59:45.997Z,5.43
2022-11-17T06:04:50.312Z,6.13
2022-11-17T06:09:52.570Z,2.75
2022-11-17T06:14:54.817Z,2.92
2022-11-17T06:20:21.452Z,2.45
2022-11-17T06:25:24.550Z,4.38
2022-11-17T06:30:27.419Z,3.67
2022-11-17T06:35:33.634Z,2.97
2022-11-17T06:40:35.535Z,4.50
2022-11-17T06:45:40.443Z,2.85
2022-11-17T06:50:42.714Z,4.22
2022-11-17T06:55:49.691Z,5.82
2022-11-17T07:00:51.640Z,3.28
2022-11-17T07:05:53.707Z,12.80
2022-11-17T07:10:56.234Z,4.63
2022-11-17T07:16:07.082Z,6.40
2022-11-17T07:21:10.778Z,6.35
2022-11-17T07:26:12.966Z,3.28
2022-11-17T07:31:14.899Z,4.00
2022-11-17T07:36:17.003Z,4.63
2022-11-17T07:41:18.908Z,2.55
2022-11-17T07:46:20.754Z,5.15
2022-11-17T07:51:23.151Z,4.55
2022-11-17T07:56:25.162Z,3.70
2022-11-17T08:01:28.469Z,3.15
2022-11-17T08:06:30.728Z,4.35
2022-11-17T08:11:33.945Z,5.35
2022-11-17T08:16:36.623Z,7.05
2022-11-17T08:21:38.713Z,8.10
2022-11-17T08:26:40.565Z,3.95
2022-11-17T08:31:46.542Z,6.35
2022-11-17T08:36:48.723Z,5.43
2022-11-17T08:41:52.435Z,6.13
2022-11-17T08:46:54.379Z,4.80
2022-11-17T08:51:56.790Z,4.72
2022-11-17T08:57:00.100Z,4.35
2022-11-17T09:02:02.563Z,4.57
2022-11-17T09:07:04.554Z,4.97
2022-11-17T09:12:06.742Z,7.53
2022-11-17T09:17:08.614Z,4.10
2022-11-17T09:22:10.502Z,4.45
2022-11-17T09:27:12.465Z,3.88
2022-11-17T09:32:16.778Z,5.15
2022-11-17T09:37:18.986Z,3.70
2022-11-17T09:42:22.794Z,4.45
2022-11-17T09:48:33.778Z,4.18
2022-11-17T09:53:46.045Z,7.97
2022-11-17T09:58:52.453Z,3.72
2022-11-17T10:03:57.052Z,5.47
2022-11-17T10:09:05.625Z,6.40
2022-11-17T10:14:16.202Z,4.47
2022-11-17T10:19:24.769Z,4.38
2022-11-17T10:24:55.296Z,5.85
2022-11-17T10:29:59.932Z,3.97
2022-11-17T10:35:23.918Z,7.07
2022-11-17T10:40:29.444Z,6.80
2022-11-17T10:45:32.912Z,4.80
2022-11-17T10:50:35.429Z,3.97
2022-11-17T10:55:39.130Z,4.55
2022-11-17T11:00:42.655Z,4.20
2022-11-17T11:06:19.883Z,4.20
2022-11-17T11:11:53.834Z,9.30
2022-11-17T11:16:55.893Z,5.15
2022-11-17T11:22:21.441Z,5.10
2022-11-17T11:27:55.684Z,4.63
2022-11-17T11:33:06.529Z,6.35
2022-11-17T11:38:16.579Z,5.65
2022-11-17T11:43:19.395Z,6.13
2022-11-17T11:48:21.199Z,10.32
2022-11-17T11:53:29.532Z,5.45
2022-11-17T11:58:31.289Z,6.88
2022-11-17T12:04:25.618Z,7.00
2022-11-17T12:09:53.354Z,6.63
2022-11-17T12:15:19.984Z,5.03
2022-11-17T12:20:33.565Z,6.60
2022-11-17T12:25:42.509Z,4.68
2022-11-17T12:30:44.303Z,6.25
2022-11-17T12:35:46.368Z,4.28
2022-11-17T12:40:52.893Z,5.28
2022-11-17T12:46:06.780Z,4.97
2022-11-17T12:51:42.182Z,4.60
2022-11-17T12:56:56.282Z,5.10
2022-11-17T13:02:17.466Z,7.10
2022-11-17T13:07:23.039Z,5.40
2022-11-17T13:12:28.136Z,4.32
2022-11-17T13:17:42.562Z,3.70
2022-11-17T13:23:04.522Z,3.50
2022-11-17T13:28:06.363Z,5.20
2022-11-17T13:33:20.147Z,2.90
2022-11-17T13:38:24.302Z,3.35
2022-11-17T13:43:27.770Z,5.38
2022-11-17T13:48:50.627Z,5.18
2022-11-17T13:54:15.609Z,4.75
2022-11-17T13:59:18.169Z,4.50
2022-11-17T14:04:23.168Z,7.50
2022-11-17T14:09:28.615Z,3.60
2022-11-17T14:14:39.248Z,3.97
2022-11-17T14:19:41.087Z,9.48
2022-11-17T14:24:42.815Z,8.23
2022-11-17T14:29:44.631Z,7.18
2022-11-17T14:34:46.410Z,12.07
2022-11-17T14:39:48.271Z,6.45
2022-11-17T14:44:50.125Z,6.15
2022-11-17T14:49:52.348Z,8.55
2022-11-17T14:54:54.072Z,9.40
2022-11-17T14:59:56.080Z,5.85
2022-11-17T15:05:00.130Z,9.27
2022-11-17T15:10:02.555Z,3.75
2022-11-17T15:15:05.208Z,7.65
2022-11-17T15:20:07.889Z,5.53
2022-11-17T15:25:09.966Z,7.65
2022-11-17T15:30:12.594Z,6.22
2022-11-17T15:35:14.599Z,5.32
2022-11-17T15:40:19.409Z,6.13
2022-11-17T15:45:21.686Z,11.20
2022-11-17T15:50:23.538Z,11.35
2022-11-17T15:55:25.656Z,3.92
2022-11-17T16:00:27.727Z,9.38
2022-11-17T16:05:29.478Z,7.90
2022-11-17T16:10:31.636Z,18.80
2022-11-17T16:15:33.473Z,5.60
2022-11-17T16:20:35.588Z,7.32
2022-11-17T16:25:44.540Z,4.55
2022-11-17T16:30:46.342Z,4.40
2022-11-17T16:35:48.219Z,5.10
2022-11-17T16:40:50.043Z,4.95
2022-11-17T16:45:51.880Z,4.35
2022-11-17T16:50:53.676Z,6.97
2022-11-17T16:55:55.515Z,5.75
2022-11-17T17:00:57.788Z,8.90
2022-11-17T17:06:04.003Z,8.15
2022-11-17T17:11:12.368Z,7.47
2022-11-17T17:16:16.785Z,6.10
2022-11-17T17:21:19.805Z,6.35
2022-11-17T17:26:24.075Z,5.72
2022-11-17T17:31:30.805Z,5.88
2022-11-17T17:36:34.285Z,7.30
2022-11-17T17:41:39.681Z,5.60
2022-11-17T17:46:42.950Z,6.63
2022-11-17T17:51:45.482Z,11.55
2022-11-17T17:56:48.250Z,14.77
2022-11-17T18:01:50.037Z,10.27
2022-11-17T18:06:51.957Z,8.98
2022-11-17T18:11:53.843Z,10.80
2022-11-17T18:16:56.087Z,7.25
2022-11-17T18:21:57.953Z,9.30
2022-11-17T18:26:59.931Z,10.35
2022-11-17T18:32:01.876Z,7.10
2022-11-17T18:37:03.772Z,5.70
2022-11-17T18:42:05.730Z,4.18
2022-11-17T18:47:07.639Z,5.78
2022-11-17T18:52:10.064Z,5.75
2022-11-17T18:57:12.018Z,6.43
2022-11-17T19:02:13.862Z,8.48
2022-11-17T19:07:15.838Z,7.03
2022-11-17T19:12:19.085Z,5.93
2022-11-17T19:17:20.963Z,6.35
2022-11-17T19:22:23.350Z,7.75
2022-11-17T19:27:25.184Z,7.13
2022-11-17T19:32:27.094Z,9.20
2022-11-17T19:37:29.217Z,7.63
2022-11-17T19:42:31.073Z,8.75
2022-11-17T19:47:32.925Z,7.15
2022-11-17T19:52:34.911Z,7.60
2022-11-17T19:57:36.716Z,7.68
2022-11-17T20:02:38.671Z,8.45
2022-11-17T20:07:40.614Z,7.15
2022-11-17T20:12:43.489Z,6.38
2022-11-17T20:17:45.569Z,6.28
2022-11-17T20:22:47.545Z,7.22
2022-11-17T20:27:49.545Z,8.43
2022-11-17T20:32:51.396Z,7.63
2022-11-17T20:37:53.239Z,8.32
2022-11-17T20:42:55.340Z,8.48
2022-11-17T20:47:57.391Z,8.27
2022-11-17T20:52:59.356Z,11.25
2022-11-17T20:58:01.118Z,9.70
2022-11-17T21:03:03.506Z,10.88
2022-11-17T21:08:05.733Z,10.65
2022-11-17T21:13:07.529Z,10.38
2022-11-17T21:18:26.131Z,18.63
2022-11-17T21:23:28.358Z,9.70
2022-11-17T21:28:30.115Z,10.35
2022-11-17T21:33:31.992Z,14.63
2022-11-17T21:38:34.089Z,9.38
2022-11-17T21:43:37.552Z,12.32
2022-11-17T21:48:39.685Z,10.75
2022-11-17T21:53:41.512Z,12.43
2022-11-17T21:58:46.187Z,13.18
2022-11-17T22:03:48.163Z,14.13
2022-11-17T22:08:50.551Z,15.40
2022-11-17T22:13:52.369Z,14.57
2022-11-17T22:18:54.161Z,14.95
2022-11-17T22:23:56.100Z,15.45
2022-11-17T22:28:59.059Z,13.82
2022-11-17T22:34:00.949Z,15.77
2022-11-17T22:39:03.192Z,12.90
2022-11-17T22:44:06.374Z,16.02
2022-11-17T22:49:08.287Z,12.98
2022-11-17T22:54:10.190Z,14.23
2022-11-17T22:59:12.009Z,10.63
2022-11-17T23:04:15.048Z,13.63
2022-11-17T23:09:17.327Z,14.60
2022-11-17T23:14:19.427Z,15.00
2022-11-17T23:19:21.619Z,11.90
2022-11-17T23:24:23.484Z,13.57
2022-11-17T23:29:25.326Z,15.45
2022-11-17T23:34:27.776Z,15.15
2022-11-17T23:39:29.820Z,12.88
2022-11-17T23:44:31.781Z,9.80
2022-11-17T23:49:33.628Z,10.50
2022-11-17T23:54:35.514Z,11.55
2022-11-17T23:59:37.365Z,10.63
